Oak Park, California
Current Conditions -  °F | °C
As of 9:51 AM on Sunday 21 Dec 2014 (Local Time) from KVNY Reporting Station
Haze Haze  
Wind Chill: 59°   Ceiling: Unl
Heat Index: 59°   Visibility: 6mi
Dew Point: 49°   Wind: 6mph
Humidity: 69%   Direction: 170°S
Pressure: 30.15"   Gusts: NA
Location:  34.17°N, 118.76°W
Report Text: KVNY 211751Z 17005KT 6SM HZ CLR 15/09 A3015 RMK AO2 SLP205 T01500094 10172 20100 53007
Loading
Personal Weather Stations






























Interactive Weather Map New forecast layout! Learn more

10-Day Weather Forecast

Advertisements
Track Severe Weather on mobile